Cranford, NJ

7:32 PM EDT on May 30, 2015 (GMT -0400)
Newark International | | Change Station
CLOSE
Current Station
Airport
Location: Newark,
Elevation: 30 ft
Nearby Weather Stations

Elev 30 ft 40.68 °N, 74.17 °W | Updated 41 minutes ago

Partly Cloudy
Partly Cloudy
83 °F
Feels Like 85 °F
N
15
Wind Variable Wind from South
Gusts 22 mph

Today
High -- | Low -- °F
--% Chance of Precip.
Yesterday
High -- | Low -- °F
Precip. -- in
5:29 AM 8:20 PM
Waxing Gibbous, 92% visible
Pressure 30.04 in
Visibility 10.0 miles
Clouds Few 4500 ft
Mostly Cloudy 6000 ft
Heat Index 85 °F
Dew Point 65 °F
Humidity 54%
Rainfall 0.00 in
Snow Depth Not available.
UV 0 out of 12
Pollen 8.90 out of 12
Air Quality Not available.
Flu Activity Sporadic
METAR KEWR 302251Z 17013G19KT 10SM FEW045 BKN060 28/18 A3004 RMK AO2 SLP173 T02830183

More Conditions Fewer Conditions

Pressure 30.04 in
Visibility 10.0 miles
Clouds Few 4500 ft
Mostly Cloudy 6000 ft
Heat Index 85 °F
Dew Point 65 °F
Humidity 54%
Rainfall 0.00 in
Snow Depth Not available.
UV 0 out of 12
Pollen 8.90 out of 12
Air Quality Not available.
Flu Activity Sporadic
METAR KEWR 302251Z 17013G19KT 10SM FEW045 BKN060 28/18 A3004 RMK AO2 SLP173 T02830183

More Conditions Fewer Conditions

10-Day Weather Forecast

Almanac

Astronomy

May. 30, 2015 Rise Set
Actual Time
Civil Twilight
Nautical Twilight
Astronomical Twilight
Moon
Length of Visible Light
Length of Day
Tomorrow will be .
, % of the Moon is Illuminated

Today's Extremes

State Highs State Lows

Community

WunderPhotos

Upload Photos

1,825,556 photos uploaded!

WunderBlogs® & News

Nearby

Air Quality

  Air Quality AQ Index Pollutant
Not available.

Snow Depth

Station Depth Elevation

Earthquake Activity

City Distance Mag. Time & Date
Minimum magnitude displayed is 2.5.

Coastal Water Temperatures

Place Temperature

Stations

Nearby Weather Stations

Station Location Temp. Windchill Dew Point Humidity Wind Precip. Elev Updated Type